Time;durP1;ratioP1;P1;durP2;ratioP2;P2;SDS_P1;SDS_P2;PMS_P1;PMS_P2;Temp;Humidity;BMP_temperature;BMP_pressure;BME280_temperature;BME280_humidity;BME280_pressure;Samples;Min_cycle;Max_cycle;Signal;HPM_P1;HPM_P2
2023/05/10 00:01:55;;;;;;;4.93;3.00;;;12.40;99.90;;;;;;4167479;28;20255;-76
2023/05/10 00:03:57;;;;;;;4.20;2.77;;;12.40;99.90;;;;;;4166103;28;20664;-76
2023/05/10 00:06:00;;;;;;;5.70;2.87;;;12.30;99.90;;;;;;4168644;28;20254;-76
2023/05/10 00:08:02;;;;;;;3.83;2.87;;;12.30;99.90;;;;;;4166013;28;20219;-76
2023/05/10 00:10:04;;;;;;;6.80;2.93;;;12.30;99.90;;;;;;4168452;28;20218;-77
2023/05/10 00:12:07;;;;;;;4.37;2.57;;;12.30;99.90;;;;;;4168806;28;20311;-77
2023/05/10 00:14:08;;;;;;;3.93;2.70;;;12.20;99.90;;;;;;4166365;28;20768;-76
2023/05/10 00:16:11;;;;;;;4.80;2.93;;;12.20;99.90;;;;;;4164481;28;20246;-76
2023/05/10 00:18:13;;;;;;;4.97;2.70;;;12.20;99.90;;;;;;4167026;28;20262;-76
2023/05/10 00:20:15;;;;;;;5.03;3.10;;;12.20;99.90;;;;;;4163062;28;20611;-76
2023/05/10 00:22:19;;;;;;;3.50;3.00;;;12.10;99.90;;;;;;4165567;28;20211;-77
2023/05/10 00:24:20;;;;;;;5.63;2.77;;;12.10;99.90;;;;;;4167906;28;20224;-76
2023/05/10 00:26:22;;;;;;;3.77;2.80;;;12.10;99.90;;;;;;4169315;28;20215;-76
2023/05/10 00:28:24;;;;;;;5.73;3.47;;;12.10;99.90;;;;;;4167327;28;20217;-76
2023/05/10 00:30:26;;;;;;;4.83;2.90;;;12.00;99.90;;;;;;4167828;28;20211;-76
2023/05/10 00:32:28;;;;;;;3.83;2.70;;;12.10;99.90;;;;;;4170544;28;20241;-76
2023/05/10 00:34:30;;;;;;;4.73;3.20;;;12.00;99.90;;;;;;4166138;28;20231;-76
2023/05/10 00:36:32;;;;;;;3.97;2.90;;;12.00;99.90;;;;;;4167804;28;20249;-76
2023/05/10 00:38:36;;;;;;;3.77;2.70;;;12.00;99.90;;;;;;4168359;28;20293;-76
2023/05/10 00:40:38;;;;;;;5.00;3.00;;;11.90;99.90;;;;;;4169513;28;20234;-76
2023/05/10 00:42:40;;;;;;;6.00;3.30;;;11.90;99.90;;;;;;4168309;28;20214;-76
2023/05/10 00:44:42;;;;;;;5.03;3.20;;;11.90;99.90;;;;;;4166895;28;20318;-75
2023/05/10 00:46:43;;;;;;;3.97;2.27;;;11.90;99.90;;;;;;4169178;28;20225;-75
2023/05/10 00:48:46;;;;;;;5.03;2.97;;;11.80;99.90;;;;;;4167357;28;20207;-75
2023/05/10 00:50:48;;;;;;;4.40;2.73;;;11.80;99.90;;;;;;4166935;28;20238;-76
2023/05/10 00:52:50;;;;;;;3.70;2.80;;;11.70;99.90;;;;;;4169236;28;20230;-75
2023/05/10 00:54:55;;;;;;;4.20;2.73;;;11.80;99.90;;;;;;4167216;28;20244;-75
2023/05/10 00:56:57;;;;;;;3.27;2.57;;;11.80;99.90;;;;;;4165883;28;20273;-75
2023/05/10 00:58:59;;;;;;;5.57;3.20;;;11.80;99.90;;;;;;4169986;28;20219;-75
2023/05/10 01:01:02;;;;;;;3.70;2.73;;;11.70;99.90;;;;;;4173262;28;20232;-75
2023/05/10 01:03:04;;;;;;;4.30;3.03;;;11.70;99.90;;;;;;4167962;28;20203;-75
2023/05/10 01:05:07;;;;;;;3.83;2.97;;;11.70;99.90;;;;;;4168126;28;20271;-75
2023/05/10 01:07:09;;;;;;;3.77;2.57;;;11.70;99.90;;;;;;4174527;28;20208;-75
2023/05/10 01:09:11;;;;;;;4.70;2.80;;;11.60;99.90;;;;;;4170548;28;20210;-76
2023/05/10 01:11:15;;;;;;;3.90;2.80;;;11.60;99.90;;;;;;4173684;28;20209;-75
2023/05/10 01:13:26;;;;;;;4.77;2.73;;;11.60;99.90;;;;;;4169343;28;20237;-75
2023/05/10 01:15:29;;;;;;;4.67;3.20;;;11.60;99.90;;;;;;4167583;28;20226;-75
2023/05/10 01:17:31;;;;;;;3.77;3.03;;;11.50;99.90;;;;;;4170583;28;20248;-75
2023/05/10 01:19:37;;;;;;;5.73;3.30;;;11.50;99.90;;;;;;4167375;28;20222;-75
2023/05/10 01:21:48;;;;;;;4.10;3.10;;;11.50;99.90;;;;;;4173383;28;20305;-76
2023/05/10 01:24:13;;;;;;;4.23;2.90;;;11.50;99.90;;;;;;4168537;28;20672;-75
2023/05/10 01:26:47;;;;;;;5.20;3.03;;;11.40;99.90;;;;;;4171325;28;20237;-76
2023/05/10 01:29:13;;;;;;;6.67;3.23;;;11.40;99.90;;;;;;4168735;28;20232;-75
2023/05/10 01:31:41;;;;;;;4.57;2.90;;;11.40;99.90;;;;;;4164358;28;20312;-76
2023/05/10 01:33:53;;;;;;;4.73;2.57;;;11.40;99.90;;;;;;4168310;28;20739;-76
2023/05/10 01:36:03;;;;;;;5.47;3.10;;;11.40;99.90;;;;;;4172277;28;20625;-75
2023/05/10 01:38:13;;;;;;;5.13;2.70;;;11.40;99.90;;;;;;4168889;28;20209;-75
2023/05/10 01:40:27;;;;;;;4.37;2.80;;;11.30;99.90;;;;;;4172515;28;20863;-76
2023/05/10 01:42:37;;;;;;;4.80;2.87;;;11.30;99.90;;;;;;4170559;28;20805;-76
2023/05/10 01:44:43;;;;;;;4.40;3.00;;;11.30;99.90;;;;;;4169913;28;20779;-76
2023/05/10 01:46:54;;;;;;;6.03;3.17;;;11.30;99.90;;;;;;4167701;28;20245;-76
2023/05/10 01:49:00;;;;;;;4.43;2.93;;;11.20;99.90;;;;;;4166818;28;20316;-76
2023/05/10 01:51:03;;;;;;;4.67;3.13;;;11.20;99.90;;;;;;4169194;28;20206;-76
2023/05/10 01:53:08;;;;;;;4.17;2.90;;;11.20;99.90;;;;;;4169169;28;21012;-76
2023/05/10 01:55:15;;;;;;;4.77;3.10;;;11.10;99.90;;;;;;4168390;28;20238;-76
2023/05/10 01:57:20;;;;;;;4.30;3.30;;;11.10;99.90;;;;;;4171191;28;20256;-76
2023/05/10 01:59:25;;;;;;;4.80;3.47;;;11.10;99.90;;;;;;4169269;28;20229;-76
2023/05/10 02:01:28;;;;;;;5.73;2.90;;;11.10;99.90;;;;;;4169095;28;20303;-76
2023/05/10 02:03:32;;;;;;;5.20;2.63;;;11.10;99.90;;;;;;4170127;28;20268;-76
2023/05/10 02:05:36;;;;;;;3.40;2.40;;;11.10;99.90;;;;;;4174003;28;20332;-75
2023/05/10 02:07:38;;;;;;;4.47;3.03;;;11.00;99.90;;;;;;4170402;28;20248;-76
2023/05/10 02:09:41;;;;;;;4.80;2.73;;;11.00;99.90;;;;;;4167053;28;20222;-76
2023/05/10 02:11:44;;;;;;;4.80;3.10;;;11.00;99.90;;;;;;4170188;28;20221;-76
2023/05/10 02:13:49;;;;;;;4.27;3.10;;;11.00;99.90;;;;;;4168854;28;20245;-76
2023/05/10 02:15:51;;;;;;;4.70;3.00;;;11.00;99.90;;;;;;4169106;28;20225;-76
2023/05/10 02:17:55;;;;;;;5.03;3.23;;;11.00;99.90;;;;;;4167414;28;20218;-76
2023/05/10 02:19:59;;;;;;;4.50;3.13;;;10.90;99.90;;;;;;4167798;28;20247;-76
2023/05/10 02:22:03;;;;;;;3.73;2.73;;;10.90;99.90;;;;;;4169570;28;20237;-76
2023/05/10 02:24:06;;;;;;;4.80;2.90;;;10.90;99.90;;;;;;4167700;28;20274;-76
2023/05/10 02:26:09;;;;;;;4.57;3.10;;;10.80;99.90;;;;;;4168381;28;20261;-76
2023/05/10 02:28:14;;;;;;;4.67;2.80;;;10.90;99.90;;;;;;4167920;28;20303;-76
2023/05/10 02:30:17;;;;;;;3.90;2.90;;;10.80;99.90;;;;;;4167942;28;20911;-76
2023/05/10 02:32:20;;;;;;;4.30;2.87;;;10.90;99.90;;;;;;4167964;28;20776;-76
2023/05/10 02:34:24;;;;;;;4.47;2.73;;;10.80;99.90;;;;;;4166957;28;20229;-76
2023/05/10 02:36:27;;;;;;;4.10;2.87;;;10.80;99.90;;;;;;4169239;28;20250;-76
2023/05/10 02:38:32;;;;;;;5.03;3.30;;;10.80;99.90;;;;;;4166884;28;20800;-76
2023/05/10 02:40:35;;;;;;;5.07;3.30;;;10.80;99.90;;;;;;4168923;28;20250;-76
2023/05/10 02:42:39;;;;;;;4.00;2.83;;;10.70;99.90;;;;;;4168621;28;21009;-76
2023/05/10 02:44:43;;;;;;;5.50;2.87;;;10.70;99.90;;;;;;4169624;28;20210;-76
2023/05/10 02:46:45;;;;;;;4.20;2.97;;;10.70;99.90;;;;;;4167506;28;20293;-76
2023/05/10 02:48:47;;;;;;;5.37;3.30;;;10.70;99.90;;;;;;4169370;28;20300;-76
2023/05/10 02:50:53;;;;;;;4.30;3.00;;;10.60;99.90;;;;;;4168985;28;20708;-76
2023/05/10 02:53:02;;;;;;;3.67;2.70;;;10.70;99.90;;;;;;4167043;28;20247;-76
2023/05/10 02:55:09;;;;;;;4.63;2.90;;;10.60;99.90;;;;;;4169618;28;20229;-76
2023/05/10 02:57:17;;;;;;;5.43;2.80;;;10.60;99.90;;;;;;4170610;28;20663;-76
2023/05/10 02:59:19;;;;;;;4.37;3.13;;;10.60;99.90;;;;;;4167163;28;20336;-76
2023/05/10 03:01:21;;;;;;;4.73;2.90;;;10.60;99.90;;;;;;4167944;28;20271;-75
2023/05/10 03:03:23;;;;;;;6.30;2.90;;;10.60;99.90;;;;;;4169249;28;20217;-76
2023/05/10 03:05:25;;;;;;;4.90;2.90;;;10.60;99.90;;;;;;4168302;28;20250;-76
2023/05/10 03:07:27;;;;;;;5.00;2.93;;;10.50;99.90;;;;;;4169170;28;20213;-76
2023/05/10 03:09:30;;;;;;;4.77;3.03;;;10.50;99.90;;;;;;4168750;28;20240;-76
2023/05/10 03:11:47;;;;;;;4.43;2.90;;;10.50;99.90;;;;;;4167446;28;20307;-76
2023/05/10 03:13:57;;;;;;;5.23;2.87;;;10.50;99.90;;;;;;4169650;28;20683;-76
2023/05/10 03:16:07;;;;;;;4.23;3.00;;;10.50;99.90;;;;;;4169629;28;20641;-76
2023/05/10 03:18:13;;;;;;;4.23;3.10;;;10.50;99.90;;;;;;4169621;28;20248;-76
2023/05/10 03:20:23;;;;;;;3.83;2.60;;;10.40;99.90;;;;;;4167900;28;20295;-76
2023/05/10 03:22:30;;;;;;;4.93;3.00;;;10.40;99.90;;;;;;4169713;28;20761;-76
2023/05/10 03:24:35;;;;;;;4.57;3.03;;;10.40;99.90;;;;;;4165614;28;20306;-76
2023/05/10 03:26:39;;;;;;;4.63;2.97;;;10.40;99.90;;;;;;4168690;28;20883;-76
2023/05/10 03:28:42;;;;;;;8.80;3.10;;;10.40;99.90;;;;;;4168123;28;20213;-76
2023/05/10 03:30:45;;;;;;;4.93;3.17;;;10.40;99.90;;;;;;4171233;28;20241;-76
2023/05/10 03:32:47;;;;;;;6.40;3.40;;;10.40;99.90;;;;;;4168920;28;20213;-76
2023/05/10 03:34:49;;;;;;;6.43;3.20;;;10.40;99.90;;;;;;4168711;28;20241;-76
2023/05/10 03:36:51;;;;;;;4.10;2.90;;;10.40;99.90;;;;;;4169453;28;20212;-76
2023/05/10 03:38:53;;;;;;;6.47;3.47;;;10.40;99.90;;;;;;4169168;28;20215;-76
2023/05/10 03:40:55;;;;;;;5.60;3.20;;;10.40;99.90;;;;;;4166853;28;20240;-76
2023/05/10 03:42:59;;;;;;;4.60;3.10;;;10.40;99.90;;;;;;4166597;28;20222;-76
2023/05/10 03:45:01;;;;;;;5.17;3.03;;;10.40;99.90;;;;;;4169627;28;20320;-76
2023/05/10 03:47:03;;;;;;;5.90;3.00;;;10.40;99.90;;;;;;4170062;28;20291;-76
2023/05/10 03:49:05;;;;;;;4.63;2.90;;;10.40;99.90;;;;;;4167825;28;20312;-76
2023/05/10 03:51:07;;;;;;;4.17;2.87;;;10.40;99.90;;;;;;4167069;28;20258;-76
2023/05/10 03:53:09;;;;;;;4.73;3.00;;;10.40;99.90;;;;;;4167004;28;20238;-76
2023/05/10 03:55:11;;;;;;;4.20;2.90;;;10.40;99.90;;;;;;4165980;28;20225;-76
2023/05/10 03:57:13;;;;;;;6.90;3.07;;;10.40;99.90;;;;;;4168192;28;20224;-76
2023/05/10 03:59:17;;;;;;;3.80;3.00;;;10.50;99.90;;;;;;4167730;28;20213;-75
2023/05/10 04:01:19;;;;;;;5.37;2.70;;;10.40;99.90;;;;;;4166334;28;20213;-76
2023/05/10 04:03:21;;;;;;;6.67;2.93;;;10.70;99.90;;;;;;4167366;28;20319;-75
2023/05/10 04:05:23;;;;;;;4.27;3.00;;;10.50;99.90;;;;;;4167579;28;20276;-76
2023/05/10 04:07:25;;;;;;;5.40;3.30;;;10.50;99.90;;;;;;4167769;28;20977;-75
2023/05/10 04:09:27;;;;;;;5.90;3.10;;;10.50;99.90;;;;;;4169012;28;20308;-76
2023/05/10 04:11:29;;;;;;;3.93;2.83;;;10.50;99.90;;;;;;4167163;28;21122;-75
2023/05/10 04:13:31;;;;;;;3.90;2.67;;;10.50;99.90;;;;;;4166241;28;20283;-75
2023/05/10 04:15:35;;;;;;;3.80;2.63;;;10.50;99.90;;;;;;4170239;28;20753;-75
2023/05/10 04:17:37;;;;;;;4.67;3.00;;;10.50;99.90;;;;;;4170404;28;20271;-75
2023/05/10 04:19:39;;;;;;;6.97;3.17;;;10.60;99.90;;;;;;4164864;28;20266;-76
2023/05/10 04:21:41;;;;;;;4.77;3.60;;;10.60;99.90;;;;;;4167807;28;21012;-75
2023/05/10 04:23:43;;;;;;;4.90;2.93;;;10.60;99.90;;;;;;4166369;28;20231;-76
2023/05/10 04:25:45;;;;;;;4.53;3.03;;;10.60;99.90;;;;;;4170987;28;20246;-75
2023/05/10 04:27:47;;;;;;;5.17;3.17;;;10.60;99.90;;;;;;4170525;28;20247;-75
2023/05/10 04:29:50;;;;;;;4.60;3.10;;;10.70;99.90;;;;;;4166528;28;20275;-75
2023/05/10 04:31:53;;;;;;;4.67;3.13;;;10.70;99.90;;;;;;4165795;28;20216;-77
2023/05/10 04:33:55;;;;;;;5.90;3.37;;;10.70;99.90;;;;;;4172619;28;20218;-75
2023/05/10 04:35:57;;;;;;;4.10;3.00;;;10.70;99.90;;;;;;4168866;28;20875;-76
2023/05/10 04:37:59;;;;;;;5.53;3.13;;;10.80;99.90;;;;;;4170314;28;20305;-75
2023/05/10 04:40:02;;;;;;;5.57;3.33;;;10.80;99.90;;;;;;4176580;28;20730;-76
2023/05/10 04:42:05;;;;;;;3.73;2.80;;;10.80;99.90;;;;;;4173597;28;20313;-75
2023/05/10 04:44:09;;;;;;;4.37;3.10;;;10.90;99.90;;;;;;4174308;28;20218;-76
2023/05/10 04:46:13;;;;;;;4.33;3.00;;;10.90;99.90;;;;;;4171971;28;20225;-76
2023/05/10 04:48:16;;;;;;;3.93;2.80;;;11.00;99.90;;;;;;4175665;28;20217;-77
2023/05/10 04:50:18;;;;;;;7.20;3.30;;;11.00;99.90;;;;;;4179141;28;20670;-76
2023/05/10 04:52:20;;;;;;;5.33;2.77;;;11.00;99.90;;;;;;4183120;28;20221;-76
2023/05/10 04:54:22;;;;;;;4.03;2.67;;;11.10;99.90;;;;;;4178568;28;20292;-76
2023/05/10 04:56:24;;;;;;;3.77;2.53;;;11.10;99.90;;;;;;4181972;28;20291;-75
2023/05/10 04:58:26;;;;;;;3.70;2.50;;;11.20;99.90;;;;;;4184618;28;20217;-76
2023/05/10 05:00:28;;;;;;;4.70;2.60;;;11.30;99.90;;;;;;4185829;28;20210;-76
2023/05/10 05:02:30;;;;;;;5.97;3.33;;;11.30;99.90;;;;;;4185643;28;20216;-76
2023/05/10 05:04:33;;;;;;;6.33;3.40;;;11.40;99.90;;;;;;4184282;28;20223;-76
2023/05/10 05:06:35;;;;;;;4.17;2.97;;;11.50;99.90;;;;;;4188459;28;20215;-74
2023/05/10 05:08:37;;;;;;;5.43;3.17;;;11.50;99.90;;;;;;4186041;28;20218;-77
2023/05/10 05:10:39;;;;;;;8.23;4.80;;;11.60;99.90;;;;;;4188250;28;20214;-82
2023/05/10 05:12:41;;;;;;;6.63;3.83;;;11.70;99.90;;;;;;4184229;28;20206;-80
2023/05/10 05:14:43;;;;;;;8.53;4.60;;;11.70;99.90;;;;;;4179327;28;20214;-80
2023/05/10 05:16:45;;;;;;;7.73;4.83;;;11.80;99.90;;;;;;4184197;28;20237;-79
2023/05/10 05:18:47;;;;;;;9.23;4.83;;;11.90;99.90;;;;;;4183791;28;20211;-82
2023/05/10 05:20:51;;;;;;;8.50;4.83;;;11.90;99.90;;;;;;4180137;28;20218;-79
2023/05/10 05:22:53;;;;;;;9.13;4.47;;;12.00;99.90;;;;;;4180774;28;21281;-78
2023/05/10 05:24:55;;;;;;;7.73;4.53;;;12.00;99.90;;;;;;4175045;28;20304;-78
2023/05/10 05:26:57;;;;;;;6.57;4.30;;;12.10;99.90;;;;;;4179746;28;20279;-78
2023/05/10 05:28:59;;;;;;;9.70;4.03;;;12.20;99.90;;;;;;4174705;28;20225;-78
2023/05/10 05:31:03;;;;;;;13.67;4.40;;;12.30;99.90;;;;;;4173372;28;20210;-79
2023/05/10 05:33:05;;;;;;;6.77;3.50;;;12.30;99.90;;;;;;4174298;28;21510;-78
2023/05/10 05:35:10;;;;;;;5.57;3.47;;;12.40;99.90;;;;;;4175935;28;20292;-78
2023/05/10 05:37:15;;;;;;;5.30;3.47;;;12.40;99.90;;;;;;4175601;28;20211;-76
2023/05/10 05:39:18;;;;;;;7.33;3.37;;;12.50;99.90;;;;;;4171322;28;20257;-79
2023/05/10 05:41:21;;;;;;;4.80;2.90;;;12.60;99.90;;;;;;4170284;28;20206;-71
2023/05/10 05:43:23;;;;;;;7.53;4.13;;;12.70;99.90;;;;;;4171649;28;20218;-75
2023/05/10 05:45:25;;;;;;;6.87;3.50;;;12.70;99.90;;;;;;4171274;28;20251;-77
2023/05/10 05:47:29;;;;;;;7.53;3.40;;;12.80;99.90;;;;;;4166324;28;20332;-79
2023/05/10 05:49:32;;;;;;;6.77;3.30;;;12.90;99.90;;;;;;4169345;28;20849;-77
2023/05/10 05:51:35;;;;;;;4.63;2.73;;;13.00;99.90;;;;;;4174934;28;20791;-78
2023/05/10 05:53:38;;;;;;;4.67;3.03;;;13.10;99.90;;;;;;4174096;28;20953;-78
2023/05/10 05:55:40;;;;;;;4.17;2.80;;;13.20;99.90;;;;;;4177370;28;20692;-78
2023/05/10 05:57:42;;;;;;;6.27;3.13;;;13.20;99.90;;;;;;4174706;28;20218;-76
2023/05/10 05:59:45;;;;;;;5.00;3.20;;;13.30;99.90;;;;;;4178799;28;20223;-78
2023/05/10 06:01:47;;;;;;;4.37;2.57;;;13.40;99.90;;;;;;4175608;28;20215;-79
2023/05/10 06:03:49;;;;;;;5.30;3.03;;;13.40;99.90;;;;;;4172139;28;20243;-78
2023/05/10 06:05:51;;;;;;;3.93;2.73;;;13.50;99.90;;;;;;4171907;28;20294;-77
2023/05/10 06:07:53;;;;;;;4.27;2.70;;;13.70;99.90;;;;;;4175023;28;20239;-78
2023/05/10 06:09:56;;;;;;;3.60;2.60;;;13.70;99.90;;;;;;4177445;28;20209;-78
2023/05/10 06:11:58;;;;;;;4.53;3.00;;;13.70;99.90;;;;;;4174390;28;20221;-77
2023/05/10 06:14:00;;;;;;;3.80;2.90;;;13.80;99.90;;;;;;4174338;28;20239;-77
2023/05/10 06:16:05;;;;;;;3.47;2.40;;;13.80;99.90;;;;;;4174912;28;20225;-77
2023/05/10 06:18:07;;;;;;;4.47;2.67;;;13.80;99.90;;;;;;4171672;28;20204;-78
2023/05/10 06:20:10;;;;;;;6.27;2.80;;;13.90;99.90;;;;;;4171805;28;20237;-78
2023/05/10 06:22:12;;;;;;;4.87;2.97;;;14.00;99.90;;;;;;4175914;28;20297;-78
2023/05/10 06:24:15;;;;;;;5.93;3.20;;;14.00;99.90;;;;;;4175114;28;20210;-76
2023/05/10 06:26:18;;;;;;;5.47;2.77;;;14.00;99.90;;;;;;4174209;28;20246;-78
2023/05/10 06:28:20;;;;;;;3.37;2.33;;;14.10;99.90;;;;;;4173841;28;20221;-78
2023/05/10 06:30:27;;;;;;;5.47;2.40;;;14.10;99.90;;;;;;4177402;28;21082;-78
2023/05/10 06:32:28;;;;;;;4.93;2.33;;;14.20;99.90;;;;;;4177591;28;20222;-78
2023/05/10 06:34:31;;;;;;;4.63;2.73;;;14.20;99.90;;;;;;4176843;28;20214;-78
2023/05/10 06:36:33;;;;;;;5.27;2.43;;;14.30;99.90;;;;;;4173762;28;20233;-79
2023/05/10 06:38:35;;;;;;;3.67;2.40;;;14.40;99.90;;;;;;4174168;28;20242;-78
2023/05/10 06:40:37;;;;;;;3.93;2.73;;;14.40;99.90;;;;;;4170095;28;20222;-78
2023/05/10 06:42:41;;;;;;;4.73;2.90;;;14.50;99.90;;;;;;4168405;28;20236;-79
2023/05/10 06:44:43;;;;;;;5.00;2.90;;;14.60;99.90;;;;;;4173271;28;21595;-78
2023/05/10 06:46:45;;;;;;;5.03;3.10;;;14.60;99.90;;;;;;4170704;28;20222;-78
2023/05/10 06:48:47;;;;;;;4.13;2.87;;;14.70;99.90;;;;;;4171448;28;20716;-78
2023/05/10 06:50:49;;;;;;;8.27;3.10;;;14.80;99.90;;;;;;4170899;28;20363;-78
2023/05/10 06:52:50;;;;;;;3.77;2.70;;;14.80;99.90;;;;;;4167766;28;20253;-78
2023/05/10 06:54:54;;;;;;;3.97;2.83;;;14.90;99.90;;;;;;4169484;28;20230;-78
2023/05/10 06:56:56;;;;;;;5.40;2.67;;;14.90;99.90;;;;;;4169456;28;20612;-74
2023/05/10 06:58:59;;;;;;;3.33;2.30;;;15.00;99.90;;;;;;4169366;28;20803;-78
2023/05/10 07:01:05;;;;;;;4.67;2.43;;;15.00;99.90;;;;;;4165651;28;20744;-78
2023/05/10 07:03:07;;;;;;;7.07;2.73;;;15.10;99.90;;;;;;4167119;28;20238;-77
2023/05/10 07:05:10;;;;;;;7.07;2.67;;;15.10;99.90;;;;;;4170789;28;20242;-77
2023/05/10 07:07:12;;;;;;;4.17;2.60;;;15.20;99.90;;;;;;4170871;28;20302;-76
2023/05/10 07:09:14;;;;;;;4.03;2.70;;;15.20;99.90;;;;;;4168029;28;20206;-77
2023/05/10 07:11:16;;;;;;;5.00;2.97;;;15.30;99.90;;;;;;4169261;28;20887;-77
2023/05/10 07:13:18;;;;;;;5.57;2.93;;;15.30;99.90;;;;;;4168367;28;20241;-76
2023/05/10 07:15:22;;;;;;;4.60;2.90;;;15.30;99.90;;;;;;4169689;28;20230;-76
2023/05/10 07:17:24;;;;;;;5.97;3.03;;;15.30;99.90;;;;;;4171816;28;20226;-77
2023/05/10 07:19:26;;;;;;;5.30;2.70;;;15.30;99.90;;;;;;4167116;28;20218;-76
2023/05/10 07:21:29;;;;;;;4.80;2.60;;;15.30;99.90;;;;;;4170697;28;20202;-77
2023/05/10 07:23:30;;;;;;;5.07;2.70;;;15.40;99.90;;;;;;4168844;28;20215;-76
2023/05/10 07:25:35;;;;;;;5.77;2.83;;;15.50;99.90;;;;;;4170044;28;20261;-77
2023/05/10 07:27:39;;;;;;;4.37;2.63;;;15.50;99.90;;;;;;4169807;28;20214;-77
2023/05/10 07:29:42;;;;;;;4.03;2.63;;;15.70;99.90;;;;;;4169305;28;20214;-75
2023/05/10 07:31:45;;;;;;;8.60;2.73;;;15.80;99.90;;;;;;4169873;28;20214;-76
2023/05/10 07:33:47;;;;;;;4.37;3.17;;;15.90;99.90;;;;;;4171074;28;20289;-76
2023/05/10 07:35:49;;;;;;;10.53;3.17;;;16.00;99.90;;;;;;4166299;28;20338;-76
2023/05/10 07:37:51;;;;;;;10.67;3.13;;;16.10;99.90;;;;;;4170046;28;20242;-76
2023/05/10 07:39:53;;;;;;;5.40;3.23;;;16.20;99.90;;;;;;4169812;28;20229;-76
2023/05/10 07:41:57;;;;;;;5.27;2.40;;;16.30;99.90;;;;;;4169779;28;20293;-76
2023/05/10 07:43:59;;;;;;;5.03;3.20;;;16.40;99.90;;;;;;4169150;28;20549;-76
2023/05/10 07:46:05;;;;;;;3.87;3.03;;;16.60;99.90;;;;;;4167582;28;20220;-76
2023/05/10 07:48:08;;;;;;;4.57;2.77;;;16.60;99.90;;;;;;4171648;28;20265;-75
2023/05/10 07:50:10;;;;;;;5.67;2.83;;;16.60;99.90;;;;;;4166202;28;20217;-77
2023/05/10 07:52:15;;;;;;;5.27;3.03;;;16.70;99.90;;;;;;4170118;28;20212;-76
2023/05/10 07:54:17;;;;;;;4.87;3.03;;;16.70;99.90;;;;;;4168052;28;20280;-76
2023/05/10 07:56:24;;;;;;;4.40;3.03;;;16.70;99.90;;;;;;4169068;28;20224;-76
2023/05/10 07:58:27;;;;;;;3.97;3.13;;;16.70;99.90;;;;;;4171206;28;20224;-76
2023/05/10 08:00:29;;;;;;;5.77;3.00;;;16.80;99.90;;;;;;4172167;28;20225;-75
2023/05/10 08:02:31;;;;;;;5.63;3.10;;;16.80;99.90;;;;;;4167239;28;20283;-76
2023/05/10 08:04:34;;;;;;;6.33;2.93;;;16.90;99.90;;;;;;4168566;28;20249;-77
2023/05/10 08:06:36;;;;;;;3.77;2.63;;;16.90;99.90;;;;;;4169883;28;20213;-77
2023/05/10 08:08:38;;;;;;;5.27;3.20;;;17.00;99.90;;;;;;4174086;28;20216;-76
2023/05/10 08:10:40;;;;;;;6.93;2.97;;;17.10;99.90;;;;;;4173440;28;20300;-77
2023/05/10 08:12:44;;;;;;;4.43;2.87;;;17.10;99.90;;;;;;4170858;28;20300;-76
2023/05/10 08:14:46;;;;;;;5.73;3.40;;;17.20;99.90;;;;;;4174174;28;20217;-76
2023/05/10 08:16:48;;;;;;;4.37;3.00;;;17.20;99.90;;;;;;4170992;28;20283;-76
2023/05/10 08:18:50;;;;;;;5.67;3.00;;;17.20;99.90;;;;;;4171363;28;20214;-76
2023/05/10 08:20:54;;;;;;;6.33;3.00;;;17.20;99.90;;;;;;4172309;28;20212;-77
2023/05/10 08:22:55;;;;;;;4.00;2.83;;;17.10;99.90;;;;;;4172027;28;20245;-78
2023/05/10 08:24:57;;;;;;;4.80;2.90;;;17.10;99.90;;;;;;4171873;28;20316;-76
2023/05/10 08:26:59;;;;;;;5.83;2.97;;;17.10;99.90;;;;;;4171411;28;20204;-77
2023/05/10 08:29:01;;;;;;;5.27;3.13;;;17.10;99.90;;;;;;4170477;28;20300;-77
2023/05/10 08:31:05;;;;;;;5.53;3.40;;;17.10;99.90;;;;;;4169154;28;20236;-78
2023/05/10 08:33:06;;;;;;;5.37;2.77;;;17.10;99.90;;;;;;4170600;28;20208;-77
2023/05/10 08:35:09;;;;;;;5.03;3.10;;;17.00;99.90;;;;;;4172192;28;20226;-78
2023/05/10 08:37:13;;;;;;;7.17;3.20;;;17.00;99.90;;;;;;4169715;28;20280;-77
2023/05/10 08:39:14;;;;;;;6.33;2.90;;;17.00;99.90;;;;;;4169886;28;20216;-78
2023/05/10 08:41:17;;;;;;;4.30;3.03;;;17.00;99.90;;;;;;4171532;28;20252;-77
2023/05/10 08:43:19;;;;;;;4.80;3.00;;;17.10;99.90;;;;;;4173108;28;20242;-77
2023/05/10 08:45:24;;;;;;;5.53;3.57;;;17.10;99.90;;;;;;4173129;28;20257;-78
2023/05/10 08:47:27;;;;;;;5.50;2.97;;;17.10;99.90;;;;;;4170758;28;20275;-77
2023/05/10 08:49:32;;;;;;;5.73;3.07;;;17.10;99.90;;;;;;4172905;28;20814;-77
2023/05/10 08:51:37;;;;;;;6.63;3.20;;;17.20;99.90;;;;;;4170691;28;20332;-78
2023/05/10 08:53:41;;;;;;;5.40;2.97;;;17.20;99.90;;;;;;4170084;28;20220;-78
2023/05/10 08:55:46;;;;;;;6.93;2.90;;;17.20;99.90;;;;;;4170753;28;20233;-76
2023/05/10 08:57:48;;;;;;;4.13;3.00;;;17.20;99.90;;;;;;4171249;28;20226;-77
2023/05/10 08:59:50;;;;;;;4.57;3.23;;;17.20;99.90;;;;;;4172350;28;20243;-77
2023/05/10 09:01:55;;;;;;;6.23;3.50;;;17.30;99.90;;;;;;4170776;28;20304;-77
2023/05/10 09:03:57;;;;;;;5.43;3.00;;;17.20;99.90;;;;;;4171616;28;20248;-78
2023/05/10 09:05:59;;;;;;;4.10;3.30;;;17.10;99.90;;;;;;4171139;28;20229;-78
2023/05/10 09:08:01;;;;;;;5.33;3.33;;;16.90;99.90;;;;;;4169427;28;20231;-78
2023/05/10 09:10:06;;;;;;;6.00;3.30;;;16.80;99.90;;;;;;4171367;28;20827;-77
2023/05/10 09:12:11;;;;;;;4.30;3.37;;;16.60;99.90;;;;;;4170967;28;20307;-77
2023/05/10 09:14:14;;;;;;;6.93;3.93;;;16.50;99.90;;;;;;4170271;28;20279;-76
2023/05/10 09:16:15;;;;;;;7.03;3.67;;;16.30;99.90;;;;;;4172191;28;20274;-78
2023/05/10 09:18:17;;;;;;;5.17;3.70;;;16.00;99.90;;;;;;4169505;28;20300;-76
2023/05/10 09:20:20;;;;;;;6.20;3.97;;;15.90;99.90;;;;;;4170350;28;20302;-77
2023/05/10 09:22:22;;;;;;;6.97;3.70;;;15.70;99.90;;;;;;4171078;28;20219;-77
2023/05/10 09:24:32;;;;;;;5.33;3.73;;;15.60;99.90;;;;;;4168759;28;20212;-77
2023/05/10 09:26:36;;;;;;;7.40;3.87;;;15.50;99.90;;;;;;4171568;28;20234;-76
2023/05/10 09:28:55;;;;;;;6.87;3.93;;;15.40;99.90;;;;;;4167340;28;20644;-77
2023/05/10 09:30:57;;;;;;;7.50;3.90;;;15.30;99.90;;;;;;4170527;28;20245;-77
2023/05/10 09:33:00;;;;;;;7.07;4.30;;;15.20;99.90;;;;;;4168986;28;20297;-77
2023/05/10 09:35:08;;;;;;;5.87;4.17;;;15.10;99.90;;;;;;4170230;28;20226;-76
2023/05/10 09:37:10;;;;;;;7.33;4.40;;;15.00;99.90;;;;;;4170914;28;20236;-77
2023/05/10 09:39:12;;;;;;;6.13;4.13;;;15.00;99.90;;;;;;4170463;28;20252;-78
2023/05/10 09:41:18;;;;;;;8.20;4.13;;;14.90;99.90;;;;;;4172617;28;20234;-78
2023/05/10 09:43:21;;;;;;;6.90;4.70;;;14.80;99.90;;;;;;4177267;28;20215;-80
2023/05/10 09:45:27;;;;;;;6.53;4.10;;;14.70;99.90;;;;;;4174107;28;20316;-78
2023/05/10 09:47:30;;;;;;;8.63;4.70;;;14.60;99.90;;;;;;4173843;28;20226;-78
2023/05/10 09:49:32;;;;;;;8.90;4.77;;;14.50;99.90;;;;;;4177161;28;20690;-82
2023/05/10 09:51:36;;;;;;;8.23;4.53;;;14.30;99.90;;;;;;4171807;28;20220;-79
2023/05/10 09:53:38;;;;;;;6.93;4.53;;;14.30;99.90;;;;;;4175123;28;20246;-80
2023/05/10 09:55:42;;;;;;;6.83;4.70;;;14.20;99.90;;;;;;4172552;28;20267;-79
2023/05/10 09:57:44;;;;;;;7.93;4.90;;;14.20;99.90;;;;;;4168535;28;20427;-78
2023/05/10 09:59:49;;;;;;;6.30;4.50;;;14.10;99.90;;;;;;4174307;28;20308;-82
2023/05/10 10:01:51;;;;;;;8.37;4.50;;;14.20;99.90;;;;;;4177872;28;20208;-79
2023/05/10 10:03:57;;;;;;;6.23;4.43;;;14.20;99.90;;;;;;4176312;28;20256;-85
2023/05/10 10:05:59;;;;;;;6.63;4.87;;;14.20;99.90;;;;;;4176290;28;20773;-82
2023/05/10 10:08:04;;;;;;;7.17;4.63;;;14.20;99.90;;;;;;4173815;28;20213;-80
2023/05/10 10:10:11;;;;;;;7.57;4.83;;;14.20;99.90;;;;;;4174735;28;20316;-80
2023/05/10 10:12:13;;;;;;;6.23;4.73;;;14.30;99.90;;;;;;4174616;28;20205;-79
2023/05/10 10:14:19;;;;;;;7.03;5.13;;;14.30;99.90;;;;;;4174280;28;20210;-78
2023/05/10 10:16:22;;;;;;;8.43;5.00;;;14.40;99.90;;;;;;4170537;28;20229;-79
2023/05/10 10:18:26;;;;;;;5.97;4.60;;;14.40;99.90;;;;;;4172680;28;20310;-79
2023/05/10 10:20:29;;;;;;;6.00;4.47;;;14.40;99.90;;;;;;4176851;28;20215;-79
2023/05/10 10:22:31;;;;;;;6.20;4.53;;;14.50;99.90;;;;;;4178801;28;20243;-80
2023/05/10 10:24:34;;;;;;;7.10;4.50;;;14.50;99.90;;;;;;4176662;28;20214;-80
2023/05/10 10:26:38;;;;;;;7.33;4.70;;;14.60;99.90;;;;;;4171459;28;20218;-80
2023/05/10 10:28:47;;;;;;;6.57;4.50;;;14.60;99.90;;;;;;4175637;28;20210;-80
2023/05/10 10:30:52;;;;;;;6.30;4.57;;;14.60;99.90;;;;;;4174937;28;20237;-79
2023/05/10 10:33:14;;;;;;;6.10;4.87;;;14.70;99.90;;;;;;4171915;28;20268;-80
2023/05/10 10:35:16;;;;;;;5.77;4.53;;;14.60;99.90;;;;;;4171914;28;20285;-79
2023/05/10 10:37:18;;;;;;;8.90;5.50;;;14.60;99.90;;;;;;4174415;28;20661;-79
2023/05/10 10:39:21;;;;;;;6.97;4.63;;;14.60;99.90;;;;;;4178920;28;20654;-79
2023/05/10 10:41:29;;;;;;;6.00;4.57;;;14.50;99.90;;;;;;4170700;28;20207;-79
2023/05/10 10:43:31;;;;;;;8.10;4.77;;;14.50;99.90;;;;;;4173190;28;20206;-79